createdAt,value
2022-08-17T00:00:42.861Z,4.68
2022-08-17T00:03:17.814Z,3.85
2022-08-17T00:05:44.119Z,3.90
2022-08-17T00:08:10.407Z,4.07
2022-08-17T00:10:36.704Z,3.88
2022-08-17T00:13:03.013Z,4.45
2022-08-17T00:15:29.312Z,4.15
2022-08-17T00:17:55.629Z,3.92
2022-08-17T00:20:30.477Z,4.15
2022-08-17T00:23:01.248Z,3.85
2022-08-17T00:25:27.540Z,4.07
2022-08-17T00:27:53.846Z,4.15
2022-08-17T00:30:20.274Z,4.10
2022-08-17T00:33:13.838Z,4.00
2022-08-17T00:35:32.890Z,4.28
2022-08-17T00:37:59.196Z,3.80
2022-08-17T00:40:25.491Z,3.83
2022-08-17T00:42:51.966Z,4.00
2022-08-17T00:45:20.226Z,4.15
2022-08-17T00:47:46.583Z,4.72
2022-08-17T00:50:12.882Z,3.78
2022-08-17T00:52:39.177Z,4.18
2022-08-17T00:55:05.462Z,5.00
2022-08-17T00:57:31.754Z,4.43
2022-08-17T01:00:02.774Z,4.70
2022-08-17T01:02:29.923Z,4.40
2022-08-17T01:05:00.760Z,4.78
2022-08-17T01:07:27.709Z,4.43
2022-08-17T01:09:53.939Z,4.63
2022-08-17T01:12:20.226Z,4.28
2022-08-17T01:14:46.574Z,4.22
2022-08-17T01:17:12.872Z,5.35
2022-08-17T01:19:39.225Z,4.35
2022-08-17T01:22:05.525Z,4.72
2022-08-17T01:24:31.870Z,3.80
2022-08-17T01:27:00.176Z,4.00
2022-08-17T01:29:26.571Z,4.80
2022-08-17T01:31:52.868Z,4.18
2022-08-17T01:34:19.407Z,3.95
2022-08-17T01:36:46.764Z,4.00
2022-08-17T01:39:13.070Z,4.57
2022-08-17T01:41:39.374Z,4.15
2022-08-17T01:44:05.656Z,4.65
2022-08-17T01:46:31.992Z,4.50
2022-08-17T01:48:58.299Z,4.35
2022-08-17T01:51:24.871Z,4.90
2022-08-17T01:53:51.187Z,5.00
2022-08-17T01:56:17.501Z,4.55
2022-08-17T01:58:43.791Z,4.80
2022-08-17T02:01:10.161Z,4.40
2022-08-17T02:03:36.552Z,4.40
2022-08-17T02:06:02.860Z,4.40
2022-08-17T02:08:37.287Z,4.43
2022-08-17T02:11:05.926Z,4.90
2022-08-17T02:13:38.027Z,5.25
2022-08-17T02:16:04.356Z,4.70
2022-08-17T02:18:30.673Z,4.07
2022-08-17T02:20:57.012Z,4.07
2022-08-17T02:23:23.302Z,3.80
2022-08-17T02:25:49.600Z,4.10
2022-08-17T02:28:15.947Z,4.53
2022-08-17T02:30:50.104Z,4.20
2022-08-17T02:33:41.651Z,5.20
2022-08-17T02:36:09.643Z,4.75
2022-08-17T02:38:36.371Z,4.53
2022-08-17T02:41:02.698Z,5.00
2022-08-17T02:43:29.056Z,4.22
2022-08-17T02:45:55.374Z,4.50
2022-08-17T02:48:31.015Z,5.15
2022-08-17T02:50:58.226Z,4.68
2022-08-17T02:53:24.527Z,4.68
2022-08-17T02:55:52.478Z,4.45
2022-08-17T02:58:18.956Z,5.03
2022-08-17T03:01:01.927Z,4.68
2022-08-17T03:03:28.220Z,4.18
2022-08-17T03:05:54.535Z,4.43
2022-08-17T03:08:20.903Z,4.78
2022-08-17T03:10:47.213Z,5.20
2022-08-17T03:13:14.366Z,4.38
2022-08-17T03:15:43.895Z,4.72
2022-08-17T03:18:24.295Z,4.15
2022-08-17T03:20:51.557Z,4.07
2022-08-17T03:23:18.603Z,4.43
2022-08-17T03:25:50.376Z,4.35
2022-08-17T03:28:19.509Z,4.68
2022-08-17T03:30:45.837Z,4.63
2022-08-17T03:33:12.129Z,4.05
2022-08-17T03:35:40.228Z,4.97
2022-08-17T03:38:06.536Z,4.47
2022-08-17T03:40:55.403Z,3.97
2022-08-17T03:43:19.138Z,4.38
2022-08-17T03:46:04.390Z,5.13
2022-08-17T03:48:50.619Z,4.67
2022-08-17T03:51:35.416Z,4.72
2022-08-17T03:54:20.248Z,4.75
2022-08-17T03:56:46.565Z,4.55
2022-08-17T03:59:20.757Z,5.43
2022-08-17T04:01:47.689Z,5.00
2022-08-17T04:04:14.019Z,5.25
2022-08-17T04:06:40.330Z,5.10
2022-08-17T04:09:06.624Z,4.40
2022-08-17T04:11:33.239Z,4.35
2022-08-17T04:13:59.531Z,4.28
2022-08-17T04:16:25.832Z,4.95
2022-08-17T04:18:52.142Z,4.68
2022-08-17T04:21:18.631Z,4.95
2022-08-17T04:23:44.929Z,5.00
2022-08-17T04:26:11.228Z,4.57
2022-08-17T04:28:58.524Z,4.60
2022-08-17T04:31:24.815Z,5.00
2022-08-17T04:33:51.134Z,5.50
2022-08-17T04:36:17.442Z,5.57
2022-08-17T04:38:43.738Z,5.22
2022-08-17T04:41:28.573Z,5.03
2022-08-17T04:43:58.464Z,5.07
2022-08-17T04:46:24.754Z,5.78
2022-08-17T04:48:51.073Z,4.88
2022-08-17T04:51:17.373Z,5.47
2022-08-17T04:53:44.306Z,5.13
2022-08-17T04:56:18.959Z,5.37
2022-08-17T04:58:45.408Z,4.85
2022-08-17T05:01:11.771Z,4.43
2022-08-17T05:03:38.317Z,5.15
2022-08-17T05:06:04.625Z,5.20
2022-08-17T05:08:30.954Z,5.15
2022-08-17T05:10:57.247Z,5.50
2022-08-17T05:13:23.552Z,4.88
2022-08-17T05:15:49.838Z,4.57
2022-08-17T05:18:16.146Z,5.10
2022-08-17T05:20:42.434Z,4.68
2022-08-17T05:23:08.750Z,5.28
2022-08-17T05:25:36.213Z,4.75
2022-08-17T05:28:03.776Z,5.13
2022-08-17T05:30:30.062Z,4.60
2022-08-17T05:32:56.464Z,5.38
2022-08-17T05:35:22.756Z,4.95
2022-08-17T05:37:52.270Z,4.57
2022-08-17T05:40:19.852Z,4.97
2022-08-17T05:42:46.186Z,5.07
2022-08-17T05:45:12.517Z,4.50
2022-08-17T05:47:38.896Z,5.00
2022-08-17T05:50:09.467Z,4.45
2022-08-17T05:52:36.323Z,5.25
2022-08-17T05:55:02.632Z,4.78
2022-08-17T05:57:29.031Z,4.40
2022-08-17T05:59:55.897Z,4.32
2022-08-17T06:02:22.179Z,4.30
2022-08-17T06:04:48.502Z,4.78
2022-08-17T06:07:14.801Z,3.90
2022-08-17T06:09:41.097Z,3.85
2022-08-17T06:12:07.432Z,4.60
2022-08-17T06:14:40.679Z,5.22
2022-08-17T06:17:07.005Z,4.88
2022-08-17T06:19:33.308Z,4.60
2022-08-17T06:21:59.628Z,4.28
2022-08-17T06:24:27.379Z,5.10
2022-08-17T06:29:19.912Z,4.68
2022-08-17T06:31:46.225Z,4.30
2022-08-17T06:34:12.527Z,5.13
2022-08-17T06:36:40.082Z,4.78
2022-08-17T06:39:06.563Z,5.15
2022-08-17T06:41:36.503Z,4.85
2022-08-17T06:44:04.159Z,4.43
2022-08-17T06:46:30.533Z,4.78
2022-08-17T06:48:56.848Z,4.53
2022-08-17T06:51:23.171Z,5.80
2022-08-17T06:53:49.512Z,4.93
2022-08-17T06:56:15.823Z,4.38
2022-08-17T06:58:43.218Z,4.45
2022-08-17T07:01:09.579Z,5.57
2022-08-17T07:03:37.592Z,5.38
2022-08-17T07:06:04.015Z,4.18
2022-08-17T07:08:35.048Z,4.15
2022-08-17T07:11:01.726Z,4.85
2022-08-17T07:13:29.299Z,3.83
2022-08-17T07:15:57.173Z,4.25
2022-08-17T07:18:23.560Z,4.13
2022-08-17T07:20:52.076Z,4.60
2022-08-17T07:23:19.082Z,4.17
2022-08-17T07:25:45.371Z,3.72
2022-08-17T07:28:12.936Z,3.90
2022-08-17T07:30:45.774Z,5.07
2022-08-17T07:33:13.571Z,3.70
2022-08-17T07:35:41.348Z,3.92
2022-08-17T07:38:25.485Z,3.75
2022-08-17T07:40:57.438Z,3.88
2022-08-17T07:43:23.881Z,3.90
2022-08-17T07:46:09.085Z,3.72
2022-08-17T07:48:35.370Z,4.15
2022-08-17T07:51:04.717Z,3.42
2022-08-17T07:53:31.994Z,3.30
2022-08-17T07:55:58.382Z,3.97
2022-08-17T07:58:25.831Z,3.88
2022-08-17T08:00:52.122Z,3.75
2022-08-17T08:03:18.430Z,4.15
2022-08-17T08:05:49.470Z,4.05
2022-08-17T08:08:17.496Z,3.72
2022-08-17T08:10:45.067Z,3.53
2022-08-17T08:13:14.426Z,3.85
2022-08-17T08:15:40.915Z,4.20
2022-08-17T08:18:11.584Z,3.08
2022-08-17T08:20:53.279Z,3.22
2022-08-17T08:23:20.444Z,3.40
2022-08-17T08:25:49.701Z,3.45
2022-08-17T08:28:20.143Z,3.13
2022-08-17T08:30:47.046Z,4.00
2022-08-17T08:33:13.403Z,3.72
2022-08-17T08:35:40.060Z,4.13
2022-08-17T08:38:07.408Z,3.70
2022-08-17T08:40:33.716Z,3.22
2022-08-17T08:43:00.001Z,3.95
2022-08-17T08:45:26.312Z,4.18
2022-08-17T08:47:52.851Z,3.83
2022-08-17T08:50:37.321Z,3.50
2022-08-17T08:53:04.708Z,3.42
2022-08-17T08:55:34.517Z,3.70
2022-08-17T08:58:00.834Z,3.30
2022-08-17T09:00:27.171Z,4.00
2022-08-17T09:02:53.482Z,4.15
2022-08-17T09:05:19.826Z,4.10
2022-08-17T09:07:46.392Z,3.92
2022-08-17T09:10:13.612Z,4.03
2022-08-17T09:12:40.021Z,3.90
2022-08-17T09:15:09.565Z,3.67
2022-08-17T09:17:39.112Z,4.45
2022-08-17T09:20:05.394Z,4.15
2022-08-17T09:22:31.751Z,3.67
2022-08-17T09:24:58.330Z,3.13
2022-08-17T09:27:25.463Z,3.73
2022-08-17T09:29:51.763Z,4.28
2022-08-17T09:32:18.129Z,4.35
2022-08-17T09:34:47.000Z,3.60
2022-08-17T09:37:14.867Z,2.65
2022-08-17T09:39:41.250Z,2.72
2022-08-17T09:42:07.619Z,3.10
2022-08-17T09:44:33.920Z,3.22
2022-08-17T09:47:00.217Z,2.85
2022-08-17T09:49:26.512Z,3.42
2022-08-17T09:51:52.982Z,2.55
2022-08-17T09:54:37.955Z,2.63
2022-08-17T09:57:28.176Z,2.55
2022-08-17T09:59:51.037Z,3.30
2022-08-17T10:02:17.364Z,2.85
2022-08-17T10:04:43.719Z,2.08
2022-08-17T10:07:10.005Z,2.28
2022-08-17T10:09:36.320Z,2.13
2022-08-17T10:12:20.094Z,2.00
2022-08-17T10:14:46.410Z,2.50
2022-08-17T10:17:20.368Z,2.22
2022-08-17T10:19:46.687Z,2.30
2022-08-17T10:22:34.559Z,2.22
2022-08-17T10:25:23.654Z,2.47
2022-08-17T10:27:52.392Z,2.05
2022-08-17T10:30:18.898Z,2.20
2022-08-17T10:32:45.198Z,2.92
2022-08-17T10:35:11.508Z,2.70
2022-08-17T10:37:37.813Z,2.40
2022-08-17T10:40:04.188Z,2.60
2022-08-17T10:42:33.047Z,2.30
2022-08-17T10:45:00.499Z,2.05
2022-08-17T10:47:27.509Z,2.30
2022-08-17T10:49:55.921Z,2.42
2022-08-17T10:52:22.646Z,2.92
2022-08-17T10:54:51.296Z,2.30
2022-08-17T10:57:18.036Z,2.85
2022-08-17T10:59:44.321Z,2.50
2022-08-17T11:02:10.609Z,2.60
2022-08-17T11:04:37.065Z,2.75
2022-08-17T11:07:03.293Z,2.57
2022-08-17T11:09:29.740Z,2.47
2022-08-17T11:11:55.984Z,2.30
2022-08-17T11:14:23.911Z,2.40
2022-08-17T11:16:50.221Z,2.53
2022-08-17T11:19:16.533Z,2.50
2022-08-17T11:21:42.846Z,2.70
2022-08-17T11:24:11.687Z,2.45
2022-08-17T11:26:38.416Z,2.45
2022-08-17T11:29:05.204Z,2.92
2022-08-17T11:31:37.858Z,2.67
2022-08-17T11:34:06.028Z,2.60
2022-08-17T11:36:32.339Z,2.53
2022-08-17T11:38:58.625Z,3.10
2022-08-17T11:41:27.330Z,2.20
2022-08-17T11:43:53.633Z,2.33
2022-08-17T11:46:19.935Z,2.63
2022-08-17T11:49:04.707Z,2.05
2022-08-17T11:51:33.873Z,2.08
2022-08-17T11:54:30.667Z,2.58
2022-08-17T11:56:46.545Z,2.35
2022-08-17T11:59:13.620Z,2.45
2022-08-17T12:01:40.307Z,2.35
2022-08-17T12:04:06.927Z,2.90
2022-08-17T12:06:33.280Z,2.83
2022-08-17T12:08:59.530Z,2.45
2022-08-17T12:12:01.607Z,2.25
2022-08-17T12:14:17.756Z,2.75
2022-08-17T12:16:45.588Z,2.42
2022-08-17T12:19:11.948Z,2.08
2022-08-17T12:21:38.256Z,2.30
2022-08-17T12:24:06.461Z,2.75
2022-08-17T12:26:32.984Z,3.08
2022-08-17T12:28:59.762Z,2.30
2022-08-17T12:31:27.484Z,3.33
2022-08-17T12:33:54.056Z,2.90
2022-08-17T12:36:20.837Z,2.38
2022-08-17T12:38:47.129Z,2.60
2022-08-17T12:41:28.948Z,2.90
2022-08-17T12:43:55.259Z,2.35
2022-08-17T12:46:21.565Z,3.00
2022-08-17T12:48:59.373Z,2.53
2022-08-17T12:51:26.356Z,2.78
2022-08-17T12:53:52.651Z,2.40
2022-08-17T12:56:21.194Z,2.42
2022-08-17T12:58:47.557Z,2.47
2022-08-17T13:01:13.959Z,2.17
2022-08-17T13:03:40.188Z,2.17
2022-08-17T13:06:06.525Z,2.70
2022-08-17T13:08:32.760Z,2.55
2022-08-17T13:10:59.085Z,3.13
2022-08-17T13:13:26.269Z,2.20
2022-08-17T13:15:52.581Z,2.38
2022-08-17T13:18:18.809Z,2.00
2022-08-17T13:20:45.129Z,2.30
2022-08-17T13:23:12.669Z,2.00
2022-08-17T13:25:39.024Z,2.20
2022-08-17T13:28:05.328Z,2.10
2022-08-17T13:30:33.266Z,2.50
2022-08-17T13:32:59.644Z,2.50
2022-08-17T13:35:40.093Z,2.28
2022-08-17T13:38:06.732Z,2.95
2022-08-17T13:40:33.029Z,2.55
2022-08-17T13:42:59.383Z,2.45
2022-08-17T13:45:36.227Z,2.70
2022-08-17T13:48:03.292Z,2.58
2022-08-17T13:50:29.603Z,2.17
2022-08-17T13:52:55.852Z,2.30
2022-08-17T13:55:22.151Z,2.30
2022-08-17T13:57:48.565Z,2.58
2022-08-17T14:00:29.881Z,2.15
2022-08-17T14:02:56.179Z,2.13
2022-08-17T14:05:22.481Z,2.00
2022-08-17T14:07:51.809Z,2.13
2022-08-17T14:10:18.216Z,1.98
2022-08-17T14:12:44.528Z,2.15
2022-08-17T14:15:10.764Z,2.33
2022-08-17T14:17:39.113Z,2.30
2022-08-17T14:20:05.604Z,2.38
2022-08-17T14:22:32.000Z,2.20
2022-08-17T14:24:58.230Z,2.27
2022-08-17T14:27:27.918Z,2.50
2022-08-17T14:29:54.229Z,2.42
2022-08-17T14:32:20.540Z,2.10
2022-08-17T14:34:46.992Z,2.28
2022-08-17T14:37:13.335Z,2.45
2022-08-17T14:39:39.787Z,2.53
2022-08-17T14:42:06.148Z,2.45
2022-08-17T14:44:32.552Z,2.28
2022-08-17T14:46:58.808Z,2.47
2022-08-17T14:49:25.916Z,2.45
2022-08-17T14:51:52.202Z,2.47
2022-08-17T14:54:28.828Z,2.30
2022-08-17T14:57:02.856Z,2.40
2022-08-17T14:59:47.327Z,2.08
2022-08-17T15:02:16.957Z,2.40
2022-08-17T15:04:48.032Z,2.10
2022-08-17T15:07:14.331Z,2.13
2022-08-17T15:09:40.656Z,2.28
2022-08-17T15:12:07.004Z,2.28
2022-08-17T15:14:33.260Z,2.53
2022-08-17T15:16:59.644Z,2.55
2022-08-17T15:19:25.887Z,2.13
2022-08-17T15:21:52.183Z,2.70
2022-08-17T15:24:18.484Z,2.55
2022-08-17T15:26:44.790Z,2.70
2022-08-17T15:29:11.104Z,2.38
2022-08-17T15:31:37.917Z,2.83
2022-08-17T15:34:05.261Z,1.85
2022-08-17T15:36:34.327Z,2.20
2022-08-17T15:39:00.621Z,2.13
2022-08-17T15:41:28.037Z,2.55
2022-08-17T15:43:54.335Z,2.75
2022-08-17T15:46:20.903Z,2.05
2022-08-17T15:48:47.220Z,2.35
2022-08-17T15:51:13.507Z,2.25
2022-08-17T15:53:39.819Z,2.33
2022-08-17T15:56:06.109Z,2.45
2022-08-17T15:58:33.319Z,1.80
2022-08-17T16:01:16.535Z,2.25
2022-08-17T16:04:04.392Z,2.35
2022-08-17T16:06:32.694Z,2.45
2022-08-17T16:09:00.234Z,2.40
2022-08-17T16:11:26.517Z,2.60
2022-08-17T16:13:55.117Z,2.50
2022-08-17T16:16:23.557Z,2.67
2022-08-17T16:21:26.830Z,2.15
2022-08-17T16:23:53.155Z,2.67
2022-08-17T16:26:19.458Z,2.55
2022-08-17T16:28:45.739Z,2.30
2022-08-17T16:31:12.193Z,2.92
2022-08-17T16:33:38.925Z,2.40
2022-08-17T16:36:05.249Z,2.33
2022-08-17T16:38:31.557Z,2.90
2022-08-17T16:40:57.848Z,2.33
2022-08-17T16:43:24.140Z,2.40
2022-08-17T16:45:52.274Z,2.08
2022-08-17T16:48:18.679Z,2.17
2022-08-17T16:51:03.511Z,3.30
2022-08-17T16:53:30.939Z,4.10
2022-08-17T16:55:57.298Z,3.50
2022-08-17T16:58:23.635Z,3.22
2022-08-17T17:00:50.014Z,2.40
2022-08-17T17:03:19.506Z,3.00
2022-08-17T17:05:47.878Z,2.67
2022-08-17T17:08:21.396Z,2.58
2022-08-17T17:10:47.811Z,2.88
2022-08-17T17:13:14.104Z,2.17
2022-08-17T17:15:41.395Z,3.05
2022-08-17T17:18:07.692Z,2.60
2022-08-17T17:20:35.359Z,2.53
2022-08-17T17:23:01.649Z,2.50
2022-08-17T17:25:27.952Z,2.40
2022-08-17T17:27:54.336Z,2.55
2022-08-17T17:30:24.220Z,2.88
2022-08-17T17:32:50.523Z,2.75
2022-08-17T17:35:16.832Z,2.47
2022-08-17T17:37:43.139Z,2.70
2022-08-17T17:40:09.598Z,2.38
2022-08-17T17:42:35.900Z,3.00
2022-08-17T17:45:02.232Z,2.85
2022-08-17T17:47:28.613Z,2.65
2022-08-17T17:49:54.930Z,2.97
2022-08-17T17:52:21.238Z,3.35
2022-08-17T17:54:47.571Z,3.30
2022-08-17T17:57:13.873Z,3.15
2022-08-17T17:59:43.902Z,2.63
2022-08-17T18:02:10.605Z,3.53
2022-08-17T18:04:36.942Z,4.13
2022-08-17T18:07:03.299Z,3.22
2022-08-17T18:09:33.883Z,3.58
2022-08-17T18:12:00.485Z,3.65
2022-08-17T18:14:27.342Z,3.45
2022-08-17T18:16:54.180Z,2.97
2022-08-17T18:19:20.761Z,3.70
2022-08-17T18:21:47.031Z,3.73
2022-08-17T18:24:13.320Z,3.08
2022-08-17T18:26:40.124Z,3.22
2022-08-17T18:29:10.092Z,3.53
2022-08-17T18:31:36.461Z,3.92
2022-08-17T18:34:02.750Z,3.72
2022-08-17T18:36:29.080Z,3.42
2022-08-17T18:38:55.376Z,3.90
2022-08-17T18:41:23.517Z,4.15
2022-08-17T18:43:53.687Z,4.15
2022-08-17T18:46:28.757Z,3.42
2022-08-17T18:48:59.065Z,3.70
2022-08-17T18:51:39.841Z,3.72
2022-08-17T18:54:08.921Z,4.28
2022-08-17T18:56:35.226Z,3.85
2022-08-17T18:59:02.438Z,3.60
2022-08-17T19:01:42.009Z,3.58
2022-08-17T19:04:15.605Z,3.13
2022-08-17T19:06:41.889Z,3.92
2022-08-17T19:09:08.226Z,4.13
2022-08-17T19:11:34.533Z,3.25
2022-08-17T19:14:00.905Z,4.30
2022-08-17T19:16:27.205Z,3.33
2022-08-17T19:18:53.559Z,4.07
2022-08-17T19:21:19.851Z,3.47
2022-08-17T19:23:53.366Z,4.07
2022-08-17T19:26:54.308Z,4.07
2022-08-17T19:29:07.444Z,3.25
2022-08-17T19:31:36.019Z,3.70
2022-08-17T19:34:02.370Z,3.55
2022-08-17T19:36:28.659Z,3.60
2022-08-17T19:38:54.952Z,4.28
2022-08-17T19:41:21.239Z,3.72
2022-08-17T19:43:47.987Z,4.35
2022-08-17T19:46:14.270Z,4.00
2022-08-17T19:48:40.592Z,3.53
2022-08-17T19:51:06.953Z,4.22
2022-08-17T19:53:54.074Z,4.05
2022-08-17T19:56:20.581Z,3.70
2022-08-17T19:58:46.881Z,4.57
2022-08-17T20:01:13.571Z,3.95
2022-08-17T20:03:39.924Z,4.30
2022-08-17T20:06:13.038Z,3.85
2022-08-17T20:08:39.964Z,4.13
2022-08-17T20:11:06.262Z,4.07
2022-08-17T20:13:33.003Z,3.55
2022-08-17T20:16:00.150Z,3.85
2022-08-17T20:18:26.540Z,4.38
2022-08-17T20:20:54.958Z,3.88
2022-08-17T20:23:22.170Z,5.10
2022-08-17T20:25:48.483Z,3.83
2022-08-17T20:28:14.818Z,4.78
2022-08-17T20:30:41.113Z,3.95
2022-08-17T20:33:07.425Z,4.45
2022-08-17T20:35:33.997Z,4.18
2022-08-17T20:38:02.082Z,4.45
2022-08-17T20:40:28.400Z,4.00
2022-08-17T20:42:54.735Z,4.40
2022-08-17T20:45:21.037Z,5.10
2022-08-17T20:48:07.803Z,4.03
2022-08-17T20:50:34.214Z,4.18
2022-08-17T20:53:00.525Z,4.00
2022-08-17T20:55:26.821Z,4.55
2022-08-17T20:57:53.428Z,4.25
2022-08-17T21:00:20.797Z,5.03
2022-08-17T21:02:47.111Z,3.88
2022-08-17T21:05:13.399Z,3.95
2022-08-17T21:07:43.202Z,4.65
2022-08-17T21:10:10.241Z,3.78
2022-08-17T21:12:36.564Z,3.55
2022-08-17T21:15:02.868Z,3.78
2022-08-17T21:17:29.510Z,3.88
2022-08-17T21:20:10.208Z,3.95
2022-08-17T21:22:38.004Z,3.75
2022-08-17T21:25:04.301Z,3.95
2022-08-17T21:27:30.585Z,3.80
2022-08-17T21:29:57.227Z,3.65
2022-08-17T21:32:23.762Z,3.90
2022-08-17T21:34:51.456Z,3.92
2022-08-17T21:37:17.821Z,3.58
2022-08-17T21:39:44.208Z,3.63
2022-08-17T21:42:10.966Z,4.00
2022-08-17T21:44:37.258Z,3.42
2022-08-17T21:47:03.873Z,3.28
2022-08-17T21:49:30.178Z,3.97
2022-08-17T21:52:04.210Z,3.15
2022-08-17T21:54:31.318Z,3.40
2022-08-17T21:56:58.041Z,4.35
2022-08-17T21:59:27.359Z,3.42
2022-08-17T22:01:53.645Z,3.60
2022-08-17T22:04:19.933Z,3.58
2022-08-17T22:06:54.287Z,3.35
2022-08-17T22:09:23.333Z,4.03
2022-08-17T22:11:51.193Z,3.78
2022-08-17T22:14:17.550Z,3.30
2022-08-17T22:16:43.860Z,3.83
2022-08-17T22:19:11.334Z,3.45
2022-08-17T22:21:37.622Z,4.65
2022-08-17T22:24:03.977Z,3.35
2022-08-17T22:26:30.928Z,3.38
2022-08-17T22:28:57.222Z,4.15
2022-08-17T22:31:23.536Z,4.65
2022-08-17T22:33:49.862Z,3.75
2022-08-17T22:36:16.152Z,3.85
2022-08-17T22:38:43.476Z,3.45
2022-08-17T22:41:10.021Z,4.18
2022-08-17T22:43:36.310Z,4.82
2022-08-17T22:46:02.598Z,3.72
2022-08-17T22:48:28.898Z,3.67
2022-08-17T22:50:55.205Z,4.15
2022-08-17T22:53:39.994Z,3.97
2022-08-17T22:56:24.824Z,3.78
2022-08-17T22:59:11.120Z,4.13
2022-08-17T23:01:39.037Z,3.50
2022-08-17T23:04:05.799Z,3.78
2022-08-17T23:06:33.782Z,3.80
2022-08-17T23:09:01.588Z,3.70
2022-08-17T23:11:39.446Z,3.47
2022-08-17T23:14:14.461Z,3.60
2022-08-17T23:16:42.556Z,3.20
2022-08-17T23:19:09.838Z,3.75
2022-08-17T23:21:37.287Z,3.83
2022-08-17T23:24:04.567Z,3.92
2022-08-17T23:26:33.019Z,3.47
2022-08-17T23:29:04.401Z,6.43
2022-08-17T23:31:32.932Z,3.53
2022-08-17T23:33:59.484Z,3.22
2022-08-17T23:36:28.176Z,3.92
2022-08-17T23:38:54.560Z,4.18
2022-08-17T23:41:20.861Z,4.43
2022-08-17T23:43:47.187Z,3.38
2022-08-17T23:46:13.512Z,3.88
2022-08-17T23:48:41.004Z,4.05
2022-08-17T23:51:08.995Z,3.42
2022-08-17T23:53:36.775Z,4.03
2022-08-17T23:56:09.339Z,4.18
2022-08-17T23:58:36.239Z,3.50
